createdAt,value
2023-08-12T00:02:17.447Z,22.50
2023-08-12T00:04:48.199Z,22.48
2023-08-12T00:07:15.322Z,22.47
2023-08-12T00:09:42.675Z,22.42
2023-08-12T00:12:09.625Z,22.38
2023-08-12T00:14:36.874Z,22.34
2023-08-12T00:17:03.879Z,22.29
2023-08-12T00:19:31.061Z,22.27
2023-08-12T00:21:58.001Z,22.26
2023-08-12T00:24:25.243Z,22.22
2023-08-12T00:26:52.422Z,22.21
2023-08-12T00:29:19.614Z,22.16
2023-08-12T00:31:46.476Z,22.13
2023-08-12T00:34:13.819Z,22.10
2023-08-12T00:36:40.824Z,22.09
2023-08-12T00:39:08.226Z,22.08
2023-08-12T00:41:35.230Z,22.10
2023-08-12T00:44:02.399Z,22.08
2023-08-12T00:46:29.889Z,22.05
2023-08-12T00:48:58.062Z,22.02
2023-08-12T00:51:25.114Z,21.98
2023-08-12T00:53:53.767Z,21.95
2023-08-12T00:56:21.187Z,21.94
2023-08-12T00:58:49.202Z,21.91
2023-08-12T01:01:16.762Z,21.87
2023-08-12T01:03:44.176Z,21.83
2023-08-12T01:06:11.177Z,21.82
2023-08-12T01:08:38.455Z,21.77
2023-08-12T01:11:40.625Z,21.74
2023-08-12T01:14:22.762Z,21.65
2023-08-12T01:16:58.151Z,21.59
2023-08-12T01:19:37.010Z,21.51
2023-08-12T01:22:09.049Z,21.52
2023-08-12T01:24:45.122Z,21.54
2023-08-12T01:27:14.832Z,21.56
2023-08-12T01:29:53.001Z,21.52
2023-08-12T01:32:34.956Z,21.45
2023-08-12T01:35:24.829Z,21.44
2023-08-12T01:37:54.706Z,21.40
2023-08-12T01:40:23.380Z,21.39
2023-08-12T01:42:52.462Z,21.42
2023-08-12T01:45:20.305Z,21.42
2023-08-12T01:47:47.512Z,21.40
2023-08-12T01:50:15.030Z,21.37
2023-08-12T01:52:42.251Z,21.32
2023-08-12T01:55:09.877Z,21.29
2023-08-12T01:57:36.954Z,21.23
2023-08-12T02:00:06.419Z,21.15
2023-08-12T02:02:33.577Z,21.15
2023-08-12T02:05:00.889Z,21.13
2023-08-12T02:07:27.878Z,21.10
2023-08-12T02:09:55.119Z,21.08
2023-08-12T02:12:22.025Z,21.09
2023-08-12T02:14:49.225Z,21.11
2023-08-12T02:17:16.187Z,21.08
2023-08-12T02:19:43.613Z,21.06
2023-08-12T02:22:11.590Z,21.02
2023-08-12T02:24:38.757Z,20.99
2023-08-12T02:27:05.713Z,20.96
2023-08-12T02:29:32.950Z,20.93
2023-08-12T02:31:59.951Z,20.90
2023-08-12T02:34:27.218Z,20.86
2023-08-12T02:36:54.167Z,20.92
2023-08-12T02:39:21.374Z,20.92
2023-08-12T02:41:48.352Z,20.92
2023-08-12T02:44:16.178Z,20.86
2023-08-12T02:46:43.164Z,20.83
2023-08-12T02:49:10.445Z,20.75
2023-08-12T02:51:37.455Z,20.69
2023-08-12T02:54:04.895Z,20.73
2023-08-12T02:56:32.029Z,20.73
2023-08-12T02:58:59.400Z,20.67
2023-08-12T03:01:26.672Z,20.61
2023-08-12T03:03:54.080Z,20.63
2023-08-12T03:06:21.585Z,20.60
2023-08-12T03:08:49.074Z,20.57
2023-08-12T03:11:16.827Z,20.58
2023-08-12T03:13:44.139Z,20.65
2023-08-12T03:16:15.572Z,20.62
2023-08-12T03:18:43.094Z,20.57
2023-08-12T03:21:10.891Z,20.54
2023-08-12T03:23:39.430Z,20.53
2023-08-12T03:26:06.394Z,20.52
2023-08-12T03:28:33.671Z,20.52
2023-08-12T03:31:00.732Z,20.50
2023-08-12T03:33:27.989Z,20.50
2023-08-12T03:35:54.982Z,20.47
2023-08-12T03:38:22.140Z,20.47
2023-08-12T03:40:49.113Z,20.49
2023-08-12T03:43:16.305Z,20.51
2023-08-12T03:45:47.000Z,20.45
2023-08-12T03:48:14.237Z,20.43
2023-08-12T03:50:43.387Z,20.41
2023-08-12T03:53:10.673Z,20.44
2023-08-12T03:55:37.653Z,20.39
2023-08-12T03:58:05.135Z,20.36
2023-08-12T04:00:32.296Z,20.33
2023-08-12T04:02:59.638Z,20.29
2023-08-12T04:05:26.625Z,20.26
2023-08-12T04:07:53.838Z,20.27
2023-08-12T04:10:20.778Z,20.22
2023-08-12T04:12:47.960Z,20.19
2023-08-12T04:15:15.030Z,20.15
2023-08-12T04:17:42.546Z,20.15
2023-08-12T04:20:10.589Z,20.12
2023-08-12T04:22:37.843Z,20.08
2023-08-12T04:25:05.551Z,20.08
2023-08-12T04:27:32.808Z,20.05
2023-08-12T04:29:59.822Z,20.04
2023-08-12T04:32:27.029Z,20.05
2023-08-12T04:34:54.001Z,20.08
2023-08-12T04:37:21.244Z,20.14
2023-08-12T04:39:48.558Z,20.15
2023-08-12T04:42:15.802Z,20.17
2023-08-12T04:44:42.815Z,20.14
2023-08-12T04:47:11.842Z,20.09
2023-08-12T04:49:38.992Z,20.09
2023-08-12T04:52:07.894Z,20.10
2023-08-12T04:54:34.850Z,20.17
2023-08-12T04:57:02.127Z,20.21
2023-08-12T04:59:29.117Z,20.21
2023-08-12T05:02:04.222Z,20.24
2023-08-12T05:04:43.241Z,20.26
2023-08-12T05:07:10.479Z,20.31
2023-08-12T05:09:37.358Z,20.35
2023-08-12T05:12:04.894Z,20.37
2023-08-12T05:14:31.825Z,20.45
2023-08-12T05:16:59.004Z,20.51
2023-08-12T05:19:26.023Z,20.59
2023-08-12T05:23:35.632Z,20.68
2023-08-12T05:26:02.960Z,20.69
2023-08-12T05:28:30.000Z,20.70
2023-08-12T05:30:57.282Z,20.72
2023-08-12T05:33:24.359Z,20.76
2023-08-12T05:35:51.968Z,20.81
2023-08-12T05:38:18.900Z,20.88
2023-08-12T05:40:46.082Z,20.96
2023-08-12T05:43:13.052Z,21.03
2023-08-12T05:45:40.329Z,21.13
2023-08-12T05:48:09.510Z,21.25
2023-08-12T05:50:36.852Z,21.29
2023-08-12T05:53:04.025Z,21.29
2023-08-12T05:55:31.227Z,21.30
2023-08-12T05:57:58.224Z,21.36
2023-08-12T06:00:25.442Z,21.46
2023-08-12T06:02:52.936Z,21.50
2023-08-12T06:05:20.318Z,21.53
2023-08-12T06:07:47.284Z,21.62
2023-08-12T06:10:14.544Z,21.69
2023-08-12T06:12:41.531Z,21.75
2023-08-12T06:15:09.193Z,21.83
2023-08-12T06:17:36.219Z,21.84
2023-08-12T06:20:03.912Z,21.88
2023-08-12T06:22:30.885Z,21.83
2023-08-12T06:24:58.170Z,21.85
2023-08-12T06:27:25.124Z,21.92
2023-08-12T06:29:52.517Z,21.93
2023-08-12T06:32:19.516Z,21.92
2023-08-12T06:34:46.847Z,21.95
2023-08-12T06:37:13.800Z,22.00
2023-08-12T06:39:41.162Z,22.09
2023-08-12T06:42:08.324Z,22.10
2023-08-12T06:44:35.611Z,22.11
2023-08-12T06:47:02.567Z,22.12
2023-08-12T06:49:29.832Z,22.16
2023-08-12T06:51:56.796Z,22.22
2023-08-12T06:54:24.262Z,22.30
2023-08-12T06:56:51.630Z,22.39
2023-08-12T06:59:19.232Z,22.47
2023-08-12T07:01:46.424Z,22.54
2023-08-12T07:04:13.610Z,22.58
2023-08-12T07:06:40.888Z,22.62
2023-08-12T07:09:08.065Z,22.63
2023-08-12T07:11:35.030Z,22.66
2023-08-12T07:14:02.519Z,22.72
2023-08-12T07:16:29.513Z,22.79
2023-08-12T07:18:56.928Z,22.86
2023-08-12T07:21:24.099Z,22.91
2023-08-12T07:24:03.424Z,22.95
2023-08-12T07:26:31.887Z,23.00
2023-08-12T07:28:59.165Z,23.03
2023-08-12T07:31:26.196Z,23.12
2023-08-12T07:33:53.448Z,23.10
2023-08-12T07:36:20.359Z,23.15
2023-08-12T07:38:47.633Z,23.22
2023-08-12T07:41:14.674Z,23.31
2023-08-12T07:43:41.899Z,23.36
2023-08-12T07:46:10.346Z,23.43
2023-08-12T07:48:39.408Z,23.52
2023-08-12T07:51:06.733Z,23.60
2023-08-12T07:53:33.986Z,23.68
2023-08-12T07:56:00.961Z,23.74
2023-08-12T07:58:28.177Z,23.80
2023-08-12T08:00:55.373Z,23.86
2023-08-12T08:03:22.555Z,23.93
2023-08-12T08:05:49.781Z,23.99
2023-08-12T08:08:17.095Z,24.08
2023-08-12T08:10:44.178Z,24.13
2023-08-12T08:13:11.371Z,24.23
2023-08-12T08:15:38.972Z,24.27
2023-08-12T08:18:08.617Z,24.31
2023-08-12T08:20:36.514Z,24.42
2023-08-12T08:23:04.262Z,24.49
2023-08-12T08:25:31.557Z,24.57
2023-08-12T08:27:59.033Z,24.65
2023-08-12T08:30:26.973Z,24.74
2023-08-12T08:32:54.431Z,24.78
2023-08-12T08:35:21.534Z,24.88
2023-08-12T08:37:48.811Z,24.96
2023-08-12T08:40:15.836Z,25.03
2023-08-12T08:42:48.043Z,25.10
2023-08-12T08:45:15.621Z,25.18
2023-08-12T08:47:44.135Z,25.25
2023-08-12T08:50:12.127Z,25.31
2023-08-12T08:52:40.585Z,25.37
2023-08-12T08:55:08.582Z,25.45
2023-08-12T08:57:41.649Z,25.56
2023-08-12T09:00:19.908Z,25.67
2023-08-12T09:02:52.076Z,25.74
2023-08-12T09:05:21.924Z,25.77
2023-08-12T09:07:51.236Z,25.82
2023-08-12T09:10:22.209Z,25.91
2023-08-12T09:12:49.902Z,25.97
2023-08-12T09:15:18.528Z,26.05
2023-08-12T09:17:45.983Z,26.11
2023-08-12T09:20:13.706Z,26.19
2023-08-12T09:22:44.927Z,26.26
2023-08-12T09:25:12.471Z,26.34
2023-08-12T09:27:40.389Z,26.44
2023-08-12T09:30:09.458Z,26.52
2023-08-12T09:32:39.437Z,26.62
2023-08-12T09:35:14.650Z,26.72
2023-08-12T09:37:42.805Z,26.74
2023-08-12T09:40:10.435Z,26.95
2023-08-12T09:42:47.384Z,27.05
2023-08-12T09:45:14.509Z,27.08
2023-08-12T09:47:45.458Z,27.16
2023-08-12T09:50:12.810Z,27.24
2023-08-12T09:52:41.578Z,27.37
2023-08-12T09:55:12.170Z,27.42
2023-08-12T09:57:45.151Z,27.52
2023-08-12T10:00:17.974Z,27.63
2023-08-12T10:02:48.355Z,27.69
2023-08-12T10:05:37.412Z,27.78
2023-08-12T10:08:06.125Z,27.81
2023-08-12T10:10:36.618Z,27.85
2023-08-12T10:13:08.036Z,27.88
2023-08-12T10:15:36.768Z,27.92
2023-08-12T10:18:10.450Z,27.89
2023-08-12T10:20:40.277Z,28.02
2023-08-12T10:23:08.818Z,28.13
2023-08-12T10:25:42.653Z,28.20
2023-08-12T10:28:10.369Z,28.25
2023-08-12T10:30:37.530Z,28.28
2023-08-12T10:33:05.634Z,28.24
2023-08-12T10:35:46.508Z,28.43
2023-08-12T10:38:19.068Z,28.53
2023-08-12T10:40:46.792Z,28.56
2023-08-12T10:43:16.347Z,28.60
2023-08-12T10:45:54.482Z,28.65
2023-08-12T10:48:29.094Z,28.69
2023-08-12T10:51:00.516Z,28.77
2023-08-12T10:53:39.896Z,28.82
2023-08-12T10:56:12.872Z,28.93
2023-08-12T10:58:48.666Z,28.94
2023-08-12T11:01:19.981Z,29.05
2023-08-12T11:03:49.827Z,29.11
2023-08-12T11:06:17.220Z,29.16
2023-08-12T11:09:08.024Z,29.15
2023-08-12T11:11:35.636Z,29.17
2023-08-12T11:14:15.573Z,29.18
2023-08-12T11:16:44.457Z,29.29
2023-08-12T11:19:11.956Z,29.35
2023-08-12T11:21:41.200Z,29.36
2023-08-12T11:24:09.276Z,29.40
2023-08-12T11:26:36.222Z,29.45
2023-08-12T11:29:11.363Z,29.49
2023-08-12T11:31:38.531Z,29.57
2023-08-12T11:34:06.870Z,29.61
2023-08-12T11:36:34.038Z,29.64
2023-08-12T11:39:03.200Z,29.71
2023-08-12T11:41:30.139Z,29.72
2023-08-12T11:43:57.294Z,29.73
2023-08-12T11:46:24.430Z,29.82
2023-08-12T11:48:52.230Z,29.88
2023-08-12T11:51:19.618Z,29.95
2023-08-12T11:53:47.006Z,30.01
2023-08-12T11:56:14.077Z,30.13
2023-08-12T11:58:52.506Z,30.22
2023-08-12T12:01:22.759Z,30.21
2023-08-12T12:03:53.663Z,30.21
2023-08-12T12:06:41.063Z,30.23
2023-08-12T12:09:11.239Z,30.25
2023-08-12T12:11:48.446Z,30.27
2023-08-12T12:14:15.749Z,30.28
2023-08-12T12:16:49.532Z,30.28
2023-08-12T12:19:21.795Z,30.31
2023-08-12T12:21:52.701Z,30.37
2023-08-12T12:24:21.734Z,30.46
2023-08-12T12:26:48.781Z,30.54
2023-08-12T12:29:16.060Z,30.59
2023-08-12T12:31:43.217Z,30.58
2023-08-12T12:34:10.635Z,30.66
2023-08-12T12:36:40.256Z,30.65
2023-08-12T12:39:09.114Z,30.65
2023-08-12T12:41:36.224Z,30.71
2023-08-12T12:44:04.242Z,30.83
2023-08-12T12:46:31.543Z,30.82
2023-08-12T12:48:58.780Z,30.85
2023-08-12T12:51:25.706Z,30.85
2023-08-12T12:53:53.449Z,30.89
2023-08-12T12:56:20.387Z,30.91
2023-08-12T12:58:48.402Z,30.90
2023-08-12T13:01:15.528Z,30.90
2023-08-12T13:03:43.019Z,30.92
2023-08-12T13:06:10.115Z,30.95
2023-08-12T13:08:37.503Z,30.94
2023-08-12T13:11:04.604Z,30.96
2023-08-12T13:13:31.942Z,31.02
2023-08-12T13:15:59.039Z,31.04
2023-08-12T13:18:26.392Z,31.07
2023-08-12T13:20:53.436Z,31.15
2023-08-12T13:23:20.831Z,31.21
2023-08-12T13:25:48.335Z,31.34
2023-08-12T13:28:15.771Z,31.36
2023-08-12T13:30:42.937Z,31.40
2023-08-12T13:33:10.337Z,31.44
2023-08-12T13:35:37.347Z,31.51
2023-08-12T13:38:06.831Z,31.50
2023-08-12T13:40:33.788Z,31.50
2023-08-12T13:43:01.097Z,31.45
2023-08-12T13:45:28.206Z,31.36
2023-08-12T13:47:55.755Z,31.31
2023-08-12T13:50:22.987Z,31.23
2023-08-12T13:52:51.566Z,31.15
2023-08-12T13:55:18.777Z,31.07
2023-08-12T13:57:46.443Z,31.04
2023-08-12T14:00:15.628Z,31.01
2023-08-12T14:02:43.032Z,31.00
2023-08-12T14:05:11.693Z,31.00
2023-08-12T14:07:39.024Z,31.00
2023-08-12T14:10:07.059Z,31.00
2023-08-12T14:12:34.406Z,30.97
2023-08-12T14:15:02.607Z,30.96
2023-08-12T14:17:29.838Z,30.94
2023-08-12T14:19:57.025Z,30.97
2023-08-12T14:22:25.721Z,30.97
2023-08-12T14:24:53.007Z,31.04
2023-08-12T14:27:20.674Z,30.98
2023-08-12T14:29:47.957Z,31.00
2023-08-12T14:32:17.212Z,31.01
2023-08-12T14:34:46.484Z,31.03
2023-08-12T14:37:14.492Z,31.02
2023-08-12T14:39:41.957Z,31.06
2023-08-12T14:42:11.069Z,31.04
2023-08-12T14:44:38.038Z,31.07
2023-08-12T14:47:06.056Z,31.09
2023-08-12T14:49:33.011Z,31.12
2023-08-12T14:52:00.254Z,31.14
2023-08-12T14:54:27.191Z,31.15
2023-08-12T14:56:54.559Z,31.12
2023-08-12T14:59:21.498Z,31.06
2023-08-12T15:01:48.803Z,31.09
2023-08-12T15:04:15.784Z,31.13
2023-08-12T15:06:43.004Z,31.18
2023-08-12T15:09:10.716Z,31.20
2023-08-12T15:11:38.181Z,31.24
2023-08-12T15:14:06.016Z,31.24
2023-08-12T15:16:33.294Z,31.20
2023-08-12T15:19:00.560Z,31.22
2023-08-12T15:21:27.897Z,31.22
2023-08-12T15:23:54.957Z,31.25
2023-08-12T15:26:23.639Z,31.30
2023-08-12T15:28:51.022Z,31.38
2023-08-12T15:31:18.510Z,31.44
2023-08-12T15:33:45.438Z,31.49
2023-08-12T15:36:12.631Z,31.55
2023-08-12T15:38:42.327Z,31.55
2023-08-12T15:41:15.949Z,31.64
2023-08-12T15:43:44.176Z,31.65
2023-08-12T15:46:11.990Z,31.64
2023-08-12T15:48:39.252Z,31.65
2023-08-12T15:51:06.625Z,31.59
2023-08-12T15:53:33.727Z,31.68
2023-08-12T15:56:01.202Z,31.96
2023-08-12T15:58:28.302Z,32.40
2023-08-12T16:00:55.649Z,32.76
2023-08-12T16:03:22.841Z,32.79
2023-08-12T16:05:50.158Z,33.20
2023-08-12T16:08:18.269Z,33.54
2023-08-12T16:10:45.516Z,33.86
2023-08-12T16:13:12.545Z,34.19
2023-08-12T16:15:39.896Z,34.45
2023-08-12T16:18:06.919Z,34.56
2023-08-12T16:20:34.269Z,34.59
2023-08-12T16:23:01.395Z,34.27
2023-08-12T16:25:28.642Z,33.94
2023-08-12T16:27:55.645Z,33.60
2023-08-12T16:30:22.848Z,33.29
2023-08-12T16:32:49.850Z,33.00
2023-08-12T16:35:17.228Z,32.77
2023-08-12T16:37:44.302Z,32.57
2023-08-12T16:40:12.299Z,32.30
2023-08-12T16:42:39.267Z,32.17
2023-08-12T16:45:07.415Z,32.01
2023-08-12T16:47:34.547Z,31.87
2023-08-12T16:50:02.159Z,31.72
2023-08-12T16:52:29.321Z,31.61
2023-08-12T16:54:57.057Z,31.48
2023-08-12T16:57:24.155Z,31.35
2023-08-12T16:59:51.588Z,31.25
2023-08-12T17:02:18.660Z,31.15
2023-08-12T17:04:45.856Z,31.04
2023-08-12T17:07:12.858Z,30.93
2023-08-12T17:09:40.358Z,30.85
2023-08-12T17:12:08.991Z,30.76
2023-08-12T17:14:36.423Z,30.70
2023-08-12T17:17:04.293Z,30.61
2023-08-12T17:19:31.847Z,30.57
2023-08-12T17:21:59.200Z,30.52
2023-08-12T17:24:29.019Z,30.47
2023-08-12T17:26:56.163Z,30.42
2023-08-12T17:29:23.423Z,30.39
2023-08-12T17:31:50.409Z,30.34
2023-08-12T17:34:18.067Z,30.32
2023-08-12T17:36:45.368Z,30.28
2023-08-12T17:39:12.769Z,30.23
2023-08-12T17:41:40.153Z,30.20
2023-08-12T17:44:07.622Z,30.13
2023-08-12T17:46:35.309Z,30.09
2023-08-12T17:49:03.197Z,30.05
2023-08-12T17:51:30.312Z,30.03
2023-08-12T17:53:57.781Z,30.00
2023-08-12T17:56:24.938Z,29.96
2023-08-12T17:58:52.281Z,29.90
2023-08-12T18:01:19.591Z,29.86
2023-08-12T18:03:47.237Z,29.84
2023-08-12T18:06:14.423Z,29.80
2023-08-12T18:08:41.996Z,29.77
2023-08-12T18:11:09.229Z,29.75
2023-08-12T18:13:36.855Z,29.72
2023-08-12T18:16:04.608Z,29.65
2023-08-12T18:18:32.129Z,29.57
2023-08-12T18:20:59.224Z,29.54
2023-08-12T18:23:26.737Z,29.53
2023-08-12T18:25:53.882Z,29.54
2023-08-12T18:28:21.292Z,29.53
2023-08-12T18:30:48.448Z,29.48
2023-08-12T18:33:15.927Z,29.39
2023-08-12T18:35:44.889Z,29.37
2023-08-12T18:38:12.489Z,29.30
2023-08-12T18:40:39.540Z,29.25
2023-08-12T18:43:07.208Z,29.23
2023-08-12T18:45:34.330Z,29.17
2023-08-12T18:48:01.751Z,29.11
2023-08-12T18:50:28.913Z,29.10
2023-08-12T18:52:56.184Z,29.06
2023-08-12T18:55:23.336Z,29.01
2023-08-12T18:57:51.495Z,28.98
2023-08-12T19:00:20.718Z,28.96
2023-08-12T19:02:48.076Z,28.91
2023-08-12T19:05:15.293Z,28.85
2023-08-12T19:07:42.579Z,28.80
2023-08-12T19:10:10.475Z,28.75
2023-08-12T19:12:38.212Z,28.70
2023-08-12T19:15:06.241Z,28.63
2023-08-12T19:17:33.641Z,28.58
2023-08-12T19:20:00.779Z,28.51
2023-08-12T19:22:28.655Z,28.41
2023-08-12T19:24:55.892Z,28.32
2023-08-12T19:27:25.099Z,28.26
2023-08-12T19:29:52.174Z,28.18
2023-08-12T19:32:19.597Z,28.13
2023-08-12T19:34:46.712Z,28.09
2023-08-12T19:37:14.002Z,28.06
2023-08-12T19:39:41.103Z,28.00
2023-08-12T19:42:08.461Z,27.96
2023-08-12T19:44:35.703Z,27.89
2023-08-12T19:47:03.227Z,27.88
2023-08-12T19:49:30.689Z,27.84
2023-08-12T19:51:58.072Z,27.75
2023-08-12T19:54:25.126Z,27.68
2023-08-12T19:56:52.518Z,27.61
2023-08-12T19:59:19.685Z,27.58
2023-08-12T20:01:47.156Z,27.52
2023-08-12T20:04:14.271Z,27.47
2023-08-12T20:06:41.860Z,27.43
2023-08-12T20:09:08.837Z,27.41
2023-08-12T20:11:36.118Z,27.41
2023-08-12T20:14:03.275Z,27.40
2023-08-12T20:16:30.669Z,27.36
2023-08-12T20:18:57.920Z,27.27
2023-08-12T20:21:25.314Z,27.27
2023-08-12T20:23:53.325Z,27.29
2023-08-12T20:26:23.880Z,27.29
2023-08-12T20:28:53.414Z,27.28
2023-08-12T20:31:23.938Z,27.25
2023-08-12T20:33:51.084Z,27.20
2023-08-12T20:36:19.744Z,27.16
2023-08-12T20:38:47.968Z,27.11
2023-08-12T20:41:15.322Z,27.09
2023-08-12T20:43:42.846Z,27.07
2023-08-12T20:46:10.609Z,27.03
2023-08-12T20:48:37.838Z,27.02
2023-08-12T20:51:05.391Z,27.00
2023-08-12T20:53:35.838Z,26.90
2023-08-12T20:56:03.012Z,26.81
2023-08-12T20:58:30.081Z,26.77
2023-08-12T21:00:57.483Z,26.77
2023-08-12T21:03:25.157Z,26.74
2023-08-12T21:05:52.968Z,26.68
2023-08-12T21:08:20.061Z,26.65
2023-08-12T21:10:55.194Z,26.61
2023-08-12T21:13:22.828Z,26.53
2023-08-12T21:15:50.168Z,26.46
2023-08-12T21:18:17.263Z,26.34
2023-08-12T21:20:44.995Z,26.26
2023-08-12T21:23:12.096Z,26.14
2023-08-12T21:25:39.449Z,26.08
2023-08-12T21:28:07.397Z,26.03
2023-08-12T21:30:34.960Z,25.99
2023-08-12T21:33:02.214Z,25.94
2023-08-12T21:35:29.639Z,25.93
2023-08-12T21:37:57.793Z,25.86
2023-08-12T21:40:25.885Z,25.80
2023-08-12T21:42:54.106Z,25.75
2023-08-12T21:45:21.510Z,25.68
2023-08-12T21:47:49.202Z,25.65
2023-08-12T21:50:16.754Z,25.63
2023-08-12T21:52:43.887Z,25.54
2023-08-12T21:55:11.286Z,25.50
2023-08-12T21:57:38.334Z,25.47
2023-08-12T22:00:12.522Z,25.40
2023-08-12T22:02:39.833Z,25.34
2023-08-12T22:05:07.945Z,25.29
2023-08-12T22:07:35.098Z,25.24
2023-08-12T22:10:03.886Z,25.21
2023-08-12T22:12:31.101Z,25.21
2023-08-12T22:14:58.540Z,25.15
2023-08-12T22:17:25.817Z,25.17
2023-08-12T22:19:53.271Z,25.15
2023-08-12T22:22:20.779Z,25.17
2023-08-12T22:24:49.109Z,25.22
2023-08-12T22:27:16.267Z,25.20
2023-08-12T22:29:43.826Z,25.17
2023-08-12T22:32:11.389Z,25.17
2023-08-12T22:34:39.068Z,25.16
2023-08-12T22:37:06.264Z,25.13
2023-08-12T22:39:33.650Z,25.10
2023-08-12T22:42:00.655Z,25.08
2023-08-12T22:44:28.073Z,24.98
2023-08-12T22:46:55.207Z,24.93
2023-08-12T22:49:22.569Z,24.85
2023-08-12T22:51:49.799Z,24.76
2023-08-12T22:54:17.192Z,24.69
2023-08-12T22:56:44.446Z,24.65
2023-08-12T22:59:11.852Z,24.58
2023-08-12T23:01:38.827Z,24.52
2023-08-12T23:04:06.855Z,24.51
2023-08-12T23:06:33.935Z,24.47
2023-08-12T23:09:01.308Z,24.47
2023-08-12T23:11:29.068Z,24.46
2023-08-12T23:13:56.396Z,24.42
2023-08-12T23:16:23.873Z,24.41
2023-08-12T23:18:51.280Z,24.41
2023-08-12T23:21:18.492Z,24.36
2023-08-12T23:23:45.832Z,24.32
2023-08-12T23:26:12.902Z,24.32
2023-08-12T23:28:40.203Z,24.32
2023-08-12T23:31:07.355Z,24.31
2023-08-12T23:33:34.706Z,24.27
2023-08-12T23:36:01.826Z,24.25
2023-08-12T23:38:29.235Z,24.25
2023-08-12T23:40:56.383Z,24.27
2023-08-12T23:43:23.880Z,24.28
2023-08-12T23:45:50.898Z,24.29
2023-08-12T23:48:18.242Z,24.30
2023-08-12T23:50:45.376Z,24.28
2023-08-12T23:53:12.767Z,24.18
2023-08-12T23:55:39.820Z,24.18
2023-08-12T23:58:07.221Z,24.13
